sensor_id;sensor_type;location;lat;lon;timestamp;temperature;humidity
23618;DHT22;18207;32.078;34.818;2023-07-28T00:01:04;32.90;42.40
23618;DHT22;18207;32.078;34.818;2023-07-28T00:03:36;32.90;42.80
23618;DHT22;18207;32.078;34.818;2023-07-28T00:06:07;32.90;42.90
23618;DHT22;18207;32.078;34.818;2023-07-28T00:08:37;32.90;42.80
23618;DHT22;18207;32.078;34.818;2023-07-28T00:11:09;32.90;42.90
23618;DHT22;18207;32.078;34.818;2023-07-28T00:13:40;32.80;42.50
23618;DHT22;18207;32.078;34.818;2023-07-28T00:16:11;32.80;42.80
23618;DHT22;18207;32.078;34.818;2023-07-28T00:18:44;32.90;42.80
23618;DHT22;18207;32.078;34.818;2023-07-28T00:21:14;32.80;42.60
23618;DHT22;18207;32.078;34.818;2023-07-28T00:23:44;32.90;42.70
23618;DHT22;18207;32.078;34.818;2023-07-28T00:26:15;32.80;42.90
23618;DHT22;18207;32.078;34.818;2023-07-28T00:28:45;32.80;42.90
23618;DHT22;18207;32.078;34.818;2023-07-28T00:31:15;32.80;42.90
23618;DHT22;18207;32.078;34.818;2023-07-28T00:33:47;32.80;42.90
23618;DHT22;18207;32.078;34.818;2023-07-28T00:36:17;32.80;43.10
23618;DHT22;18207;32.078;34.818;2023-07-28T00:38:47;32.80;43.40
23618;DHT22;18207;32.078;34.818;2023-07-28T00:41:17;32.90;43.60
23618;DHT22;18207;32.078;34.818;2023-07-28T00:43:48;32.90;43.80
23618;DHT22;18207;32.078;34.818;2023-07-28T00:46:18;32.90;43.80
23618;DHT22;18207;32.078;34.818;2023-07-28T00:48:51;32.80;43.70
23618;DHT22;18207;32.078;34.818;2023-07-28T00:51:23;32.80;43.70
23618;DHT22;18207;32.078;34.818;2023-07-28T00:53:54;32.80;43.90
23618;DHT22;18207;32.078;34.818;2023-07-28T00:56:27;32.80;44.10
23618;DHT22;18207;32.078;34.818;2023-07-28T00:58:57;32.80;44.00
23618;DHT22;18207;32.078;34.818;2023-07-28T01:01:28;32.80;44.00
23618;DHT22;18207;32.078;34.818;2023-07-28T01:04:00;32.80;44.10
23618;DHT22;18207;32.078;34.818;2023-07-28T01:06:37;32.80;44.20
23618;DHT22;18207;32.078;34.818;2023-07-28T01:09:18;32.70;44.20
23618;DHT22;18207;32.078;34.818;2023-07-28T01:11:54;32.80;44.30
23618;DHT22;18207;32.078;34.818;2023-07-28T01:14:25;32.70;44.30
23618;DHT22;18207;32.078;34.818;2023-07-28T01:16:55;32.70;44.40
23618;DHT22;18207;32.078;34.818;2023-07-28T01:19:27;32.70;44.40
23618;DHT22;18207;32.078;34.818;2023-07-28T01:22:07;32.70;44.50
23618;DHT22;18207;32.078;34.818;2023-07-28T01:25:05;32.70;44.50
23618;DHT22;18207;32.078;34.818;2023-07-28T01:27:46;32.70;44.50
23618;DHT22;18207;32.078;34.818;2023-07-28T01:30:18;32.70;44.50
23618;DHT22;18207;32.078;34.818;2023-07-28T01:32:49;32.70;44.50
23618;DHT22;18207;32.078;34.818;2023-07-28T01:35:19;32.70;44.60
23618;DHT22;18207;32.078;34.818;2023-07-28T01:37:49;32.70;44.60
23618;DHT22;18207;32.078;34.818;2023-07-28T01:40:20;32.60;44.60
23618;DHT22;18207;32.078;34.818;2023-07-28T01:42:52;32.60;44.50
23618;DHT22;18207;32.078;34.818;2023-07-28T01:45:23;32.60;44.60
23618;DHT22;18207;32.078;34.818;2023-07-28T01:47:53;32.60;44.70
23618;DHT22;18207;32.078;34.818;2023-07-28T01:50:23;32.60;44.70
23618;DHT22;18207;32.078;34.818;2023-07-28T01:52:53;32.60;44.70
23618;DHT22;18207;32.078;34.818;2023-07-28T01:55:24;32.50;44.60
23618;DHT22;18207;32.078;34.818;2023-07-28T01:57:58;32.50;44.60
23618;DHT22;18207;32.078;34.818;2023-07-28T02:00:29;32.50;44.60
23618;DHT22;18207;32.078;34.818;2023-07-28T02:02:59;32.50;44.60
23618;DHT22;18207;32.078;34.818;2023-07-28T02:05:31;32.50;44.60
23618;DHT22;18207;32.078;34.818;2023-07-28T02:08:02;32.50;44.50
23618;DHT22;18207;32.078;34.818;2023-07-28T02:10:32;32.50;44.50
23618;DHT22;18207;32.078;34.818;2023-07-28T02:13:04;32.40;44.50
23618;DHT22;18207;32.078;34.818;2023-07-28T02:15:35;32.40;44.50
23618;DHT22;18207;32.078;34.818;2023-07-28T02:18:08;32.40;44.50
23618;DHT22;18207;32.078;34.818;2023-07-28T02:20:38;32.40;44.40
23618;DHT22;18207;32.078;34.818;2023-07-28T02:23:08;32.30;44.40
23618;DHT22;18207;32.078;34.818;2023-07-28T02:25:40;32.30;44.40
23618;DHT22;18207;32.078;34.818;2023-07-28T02:28:12;32.30;44.40
23618;DHT22;18207;32.078;34.818;2023-07-28T02:30:43;32.20;44.30
23618;DHT22;18207;32.078;34.818;2023-07-28T02:33:12;32.20;44.30
23618;DHT22;18207;32.078;34.818;2023-07-28T02:35:43;32.20;44.30
23618;DHT22;18207;32.078;34.818;2023-07-28T02:38:13;32.20;44.30
23618;DHT22;18207;32.078;34.818;2023-07-28T02:40:44;32.10;44.30
23618;DHT22;18207;32.078;34.818;2023-07-28T02:43:16;32.10;44.20
23618;DHT22;18207;32.078;34.818;2023-07-28T02:45:48;32.10;44.30
23618;DHT22;18207;32.078;34.818;2023-07-28T02:48:22;32.10;44.30
23618;DHT22;18207;32.078;34.818;2023-07-28T02:50:53;32.00;44.20
23618;DHT22;18207;32.078;34.818;2023-07-28T02:53:23;32.00;44.20
23618;DHT22;18207;32.078;34.818;2023-07-28T02:55:54;32.00;44.20
23618;DHT22;18207;32.078;34.818;2023-07-28T02:58:28;32.00;44.30
23618;DHT22;18207;32.078;34.818;2023-07-28T03:00:58;32.00;44.30
23618;DHT22;18207;32.078;34.818;2023-07-28T03:03:28;32.00;44.30
23618;DHT22;18207;32.078;34.818;2023-07-28T03:05:59;32.00;44.30
23618;DHT22;18207;32.078;34.818;2023-07-28T03:08:29;32.00;44.20
23618;DHT22;18207;32.078;34.818;2023-07-28T03:10:59;32.00;44.30
23618;DHT22;18207;32.078;34.818;2023-07-28T03:13:32;32.00;44.30
23618;DHT22;18207;32.078;34.818;2023-07-28T03:16:02;32.00;44.30
23618;DHT22;18207;32.078;34.818;2023-07-28T03:18:33;32.00;44.30
23618;DHT22;18207;32.078;34.818;2023-07-28T03:21:03;32.00;44.30
23618;DHT22;18207;32.078;34.818;2023-07-28T03:23:34;32.00;44.40
23618;DHT22;18207;32.078;34.818;2023-07-28T03:26:04;32.00;44.40
23618;DHT22;18207;32.078;34.818;2023-07-28T03:28:37;32.00;44.40
23618;DHT22;18207;32.078;34.818;2023-07-28T03:31:07;31.90;44.40
23618;DHT22;18207;32.078;34.818;2023-07-28T03:33:37;32.00;44.50
23618;DHT22;18207;32.078;34.818;2023-07-28T03:36:08;32.00;44.50
23618;DHT22;18207;32.078;34.818;2023-07-28T03:38:38;32.00;44.50
23618;DHT22;18207;32.078;34.818;2023-07-28T03:41:08;32.00;44.50
23618;DHT22;18207;32.078;34.818;2023-07-28T03:43:40;32.00;44.60
23618;DHT22;18207;32.078;34.818;2023-07-28T03:46:11;32.00;44.70
23618;DHT22;18207;32.078;34.818;2023-07-28T03:48:41;31.90;44.60
23618;DHT22;18207;32.078;34.818;2023-07-28T03:51:12;32.00;44.70
23618;DHT22;18207;32.078;34.818;2023-07-28T03:53:42;32.00;44.70
23618;DHT22;18207;32.078;34.818;2023-07-28T03:56:12;31.90;44.60
23618;DHT22;18207;32.078;34.818;2023-07-28T03:58:44;31.90;44.60
23618;DHT22;18207;32.078;34.818;2023-07-28T04:01:14;31.90;44.60
23618;DHT22;18207;32.078;34.818;2023-07-28T04:03:46;31.90;44.60
23618;DHT22;18207;32.078;34.818;2023-07-28T04:06:16;31.90;44.60
23618;DHT22;18207;32.078;34.818;2023-07-28T04:08:46;31.90;44.60
23618;DHT22;18207;32.078;34.818;2023-07-28T04:11:16;31.90;44.60
23618;DHT22;18207;32.078;34.818;2023-07-28T04:13:48;31.90;44.70
23618;DHT22;18207;32.078;34.818;2023-07-28T04:16:19;31.90;44.70
23618;DHT22;18207;32.078;34.818;2023-07-28T04:18:49;31.90;44.80
23618;DHT22;18207;32.078;34.818;2023-07-28T04:21:20;32.00;44.90
23618;DHT22;18207;32.078;34.818;2023-07-28T04:23:51;31.90;44.80
23618;DHT22;18207;32.078;34.818;2023-07-28T04:26:23;32.00;44.90
23618;DHT22;18207;32.078;34.818;2023-07-28T04:28:56;31.90;44.90
23618;DHT22;18207;32.078;34.818;2023-07-28T04:31:25;32.00;45.00
23618;DHT22;18207;32.078;34.818;2023-07-28T04:33:56;32.00;45.00
23618;DHT22;18207;32.078;34.818;2023-07-28T04:36:27;32.00;45.00
23618;DHT22;18207;32.078;34.818;2023-07-28T04:38:57;32.10;45.00
23618;DHT22;18207;32.078;34.818;2023-07-28T04:41:28;32.10;45.00
23618;DHT22;18207;32.078;34.818;2023-07-28T04:44:01;32.10;45.00
23618;DHT22;18207;32.078;34.818;2023-07-28T04:46:33;32.10;45.00
23618;DHT22;18207;32.078;34.818;2023-07-28T04:49:04;32.20;45.00
23618;DHT22;18207;32.078;34.818;2023-07-28T04:51:34;32.20;45.00
23618;DHT22;18207;32.078;34.818;2023-07-28T04:54:04;32.20;45.00
23618;DHT22;18207;32.078;34.818;2023-07-28T04:56:34;32.20;45.00
23618;DHT22;18207;32.078;34.818;2023-07-28T04:59:06;32.20;45.00
23618;DHT22;18207;32.078;34.818;2023-07-28T05:01:36;32.30;45.00
23618;DHT22;18207;32.078;34.818;2023-07-28T05:04:07;32.30;45.00
23618;DHT22;18207;32.078;34.818;2023-07-28T05:06:37;32.30;45.00
23618;DHT22;18207;32.078;34.818;2023-07-28T05:09:06;32.40;45.70
23618;DHT22;18207;32.078;34.818;2023-07-28T05:11:37;32.40;45.10
23618;DHT22;18207;32.078;34.818;2023-07-28T05:14:10;32.50;45.10
23618;DHT22;18207;32.078;34.818;2023-07-28T05:16:40;32.50;45.20
23618;DHT22;18207;32.078;34.818;2023-07-28T05:19:11;32.50;45.20
23618;DHT22;18207;32.078;34.818;2023-07-28T05:21:42;32.50;45.20
23618;DHT22;18207;32.078;34.818;2023-07-28T05:24:12;32.60;45.30
23618;DHT22;18207;32.078;34.818;2023-07-28T05:26:42;32.60;45.30
23618;DHT22;18207;32.078;34.818;2023-07-28T05:29:14;32.70;45.40
23618;DHT22;18207;32.078;34.818;2023-07-28T05:31:45;32.70;45.50
23618;DHT22;18207;32.078;34.818;2023-07-28T05:34:16;32.80;45.50
23618;DHT22;18207;32.078;34.818;2023-07-28T05:36:46;32.80;45.50
23618;DHT22;18207;32.078;34.818;2023-07-28T05:39:15;32.80;45.50
23618;DHT22;18207;32.078;34.818;2023-07-28T05:41:46;32.90;45.60
23618;DHT22;18207;32.078;34.818;2023-07-28T05:44:18;32.90;45.60
23618;DHT22;18207;32.078;34.818;2023-07-28T05:46:48;32.90;45.70
23618;DHT22;18207;32.078;34.818;2023-07-28T05:49:20;33.00;45.80
23618;DHT22;18207;32.078;34.818;2023-07-28T05:51:50;33.00;45.80
23618;DHT22;18207;32.078;34.818;2023-07-28T05:54:21;33.10;45.80
23618;DHT22;18207;32.078;34.818;2023-07-28T05:56:51;33.10;45.70
23618;DHT22;18207;32.078;34.818;2023-07-28T05:59:23;33.10;45.70
23618;DHT22;18207;32.078;34.818;2023-07-28T06:01:54;33.20;45.80
23618;DHT22;18207;32.078;34.818;2023-07-28T06:04:25;33.30;45.80
23618;DHT22;18207;32.078;34.818;2023-07-28T06:06:55;33.40;45.80
23618;DHT22;18207;32.078;34.818;2023-07-28T06:09:26;33.40;45.80
23618;DHT22;18207;32.078;34.818;2023-07-28T06:11:56;33.40;45.80
23618;DHT22;18207;32.078;34.818;2023-07-28T06:14:29;33.50;45.90
23618;DHT22;18207;32.078;34.818;2023-07-28T06:17:00;33.60;45.90
23618;DHT22;18207;32.078;34.818;2023-07-28T06:19:31;33.60;45.70
23618;DHT22;18207;32.078;34.818;2023-07-28T06:22:02;33.70;45.60
23618;DHT22;18207;32.078;34.818;2023-07-28T06:24:32;33.70;45.50
23618;DHT22;18207;32.078;34.818;2023-07-28T06:27:03;33.80;45.50
23618;DHT22;18207;32.078;34.818;2023-07-28T06:29:38;33.80;45.40
23618;DHT22;18207;32.078;34.818;2023-07-28T06:32:09;33.90;45.30
23618;DHT22;18207;32.078;34.818;2023-07-28T06:34:39;33.90;45.10
23618;DHT22;18207;32.078;34.818;2023-07-28T06:37:09;34.00;45.10
23618;DHT22;18207;32.078;34.818;2023-07-28T06:39:40;34.10;45.00
23618;DHT22;18207;32.078;34.818;2023-07-28T06:42:10;34.10;44.80
23618;DHT22;18207;32.078;34.818;2023-07-28T06:44:42;34.20;44.70
23618;DHT22;18207;32.078;34.818;2023-07-28T06:47:12;34.20;44.50
23618;DHT22;18207;32.078;34.818;2023-07-28T06:49:43;34.30;44.40
23618;DHT22;18207;32.078;34.818;2023-07-28T06:52:13;34.30;45.00
23618;DHT22;18207;32.078;34.818;2023-07-28T06:54:44;34.40;44.20
23618;DHT22;18207;32.078;34.818;2023-07-28T06:57:17;34.50;44.00
23618;DHT22;18207;32.078;34.818;2023-07-28T06:59:49;34.50;43.90
23618;DHT22;18207;32.078;34.818;2023-07-28T07:02:20;34.60;44.00
23618;DHT22;18207;32.078;34.818;2023-07-28T07:04:50;34.60;43.90
23618;DHT22;18207;32.078;34.818;2023-07-28T07:07:20;34.70;43.70
23618;DHT22;18207;32.078;34.818;2023-07-28T07:09:53;34.70;43.50
23618;DHT22;18207;32.078;34.818;2023-07-28T07:12:23;34.80;43.20
23618;DHT22;18207;32.078;34.818;2023-07-28T07:14:56;34.80;43.10
23618;DHT22;18207;32.078;34.818;2023-07-28T07:17:27;34.90;42.80
23618;DHT22;18207;32.078;34.818;2023-07-28T07:19:59;34.90;42.70
23618;DHT22;18207;32.078;34.818;2023-07-28T07:22:29;35.00;42.60
23618;DHT22;18207;32.078;34.818;2023-07-28T07:25:00;35.00;42.40
23618;DHT22;18207;32.078;34.818;2023-07-28T07:27:31;35.10;42.20
23618;DHT22;18207;32.078;34.818;2023-07-28T07:30:05;35.00;41.90
23618;DHT22;18207;32.078;34.818;2023-07-28T07:32:36;35.10;41.80
23618;DHT22;18207;32.078;34.818;2023-07-28T07:35:08;35.10;41.60
23618;DHT22;18207;32.078;34.818;2023-07-28T07:37:39;35.10;41.40
23618;DHT22;18207;32.078;34.818;2023-07-28T07:40:10;35.20;41.30
23618;DHT22;18207;32.078;34.818;2023-07-28T07:42:45;35.20;41.20
23618;DHT22;18207;32.078;34.818;2023-07-28T07:45:18;35.20;41.60
23618;DHT22;18207;32.078;34.818;2023-07-28T07:47:48;35.30;42.00
23618;DHT22;18207;32.078;34.818;2023-07-28T07:50:19;35.30;42.00
23618;DHT22;18207;32.078;34.818;2023-07-28T07:52:49;35.30;41.80
23618;DHT22;18207;32.078;34.818;2023-07-28T07:55:20;35.30;41.70
23618;DHT22;18207;32.078;34.818;2023-07-28T07:57:50;35.30;41.70
23618;DHT22;18207;32.078;34.818;2023-07-28T08:00:23;35.40;41.60
23618;DHT22;18207;32.078;34.818;2023-07-28T08:02:54;35.40;41.50
23618;DHT22;18207;32.078;34.818;2023-07-28T08:05:24;35.40;41.50
23618;DHT22;18207;32.078;34.818;2023-07-28T08:07:55;35.40;41.90
23618;DHT22;18207;32.078;34.818;2023-07-28T08:10:26;35.50;42.00
23618;DHT22;18207;32.078;34.818;2023-07-28T08:12:57;35.50;41.80
23618;DHT22;18207;32.078;34.818;2023-07-28T08:15:29;35.50;42.00
23618;DHT22;18207;32.078;34.818;2023-07-28T08:18:00;35.50;41.90
23618;DHT22;18207;32.078;34.818;2023-07-28T08:20:31;35.60;42.00
23618;DHT22;18207;32.078;34.818;2023-07-28T08:23:00;35.60;41.90
23618;DHT22;18207;32.078;34.818;2023-07-28T08:25:30;35.60;41.60
23618;DHT22;18207;32.078;34.818;2023-07-28T08:28:02;35.70;41.90
23618;DHT22;18207;32.078;34.818;2023-07-28T08:30:35;35.70;42.00
23618;DHT22;18207;32.078;34.818;2023-07-28T08:33:06;35.70;42.10
23618;DHT22;18207;32.078;34.818;2023-07-28T08:35:36;35.80;41.80
23618;DHT22;18207;32.078;34.818;2023-07-28T08:38:07;35.80;41.70
23618;DHT22;18207;32.078;34.818;2023-07-28T08:40:37;35.80;41.80
23618;DHT22;18207;32.078;34.818;2023-07-28T08:43:07;35.80;41.80
23618;DHT22;18207;32.078;34.818;2023-07-28T08:45:40;35.80;42.00
23618;DHT22;18207;32.078;34.818;2023-07-28T08:48:11;35.80;42.00
23618;DHT22;18207;32.078;34.818;2023-07-28T08:50:41;35.90;42.00
23618;DHT22;18207;32.078;34.818;2023-07-28T08:53:12;35.90;41.80
23618;DHT22;18207;32.078;34.818;2023-07-28T08:55:42;35.90;41.90
23618;DHT22;18207;32.078;34.818;2023-07-28T08:58:16;35.90;41.70
23618;DHT22;18207;32.078;34.818;2023-07-28T09:00:51;35.90;41.80
23618;DHT22;18207;32.078;34.818;2023-07-28T09:03:22;35.90;41.70
23618;DHT22;18207;32.078;34.818;2023-07-28T09:06:00;35.90;41.60
23618;DHT22;18207;32.078;34.818;2023-07-28T09:08:31;35.90;41.50
23618;DHT22;18207;32.078;34.818;2023-07-28T09:11:03;35.90;41.50
23618;DHT22;18207;32.078;34.818;2023-07-28T09:13:39;35.90;41.50
23618;DHT22;18207;32.078;34.818;2023-07-28T09:16:18;35.90;41.50
23618;DHT22;18207;32.078;34.818;2023-07-28T09:18:49;35.90;41.50
23618;DHT22;18207;32.078;34.818;2023-07-28T09:21:21;36.00;41.70
23618;DHT22;18207;32.078;34.818;2023-07-28T09:23:51;36.00;41.80
23618;DHT22;18207;32.078;34.818;2023-07-28T09:26:22;36.00;41.80
23618;DHT22;18207;32.078;34.818;2023-07-28T09:28:53;36.00;41.70
23618;DHT22;18207;32.078;34.818;2023-07-28T09:31:31;36.00;41.60
23618;DHT22;18207;32.078;34.818;2023-07-28T09:34:02;36.00;42.00
23618;DHT22;18207;32.078;34.818;2023-07-28T09:36:33;36.00;41.50
23618;DHT22;18207;32.078;34.818;2023-07-28T09:39:06;36.00;41.40
23618;DHT22;18207;32.078;34.818;2023-07-28T09:41:37;36.00;41.20
23618;DHT22;18207;32.078;34.818;2023-07-28T09:44:08;36.00;41.00
23618;DHT22;18207;32.078;34.818;2023-07-28T09:46:49;36.00;41.10
23618;DHT22;18207;32.078;34.818;2023-07-28T09:49:29;36.00;40.80
23618;DHT22;18207;32.078;34.818;2023-07-28T09:52:05;36.00;40.80
23618;DHT22;18207;32.078;34.818;2023-07-28T09:54:40;36.00;40.80
23618;DHT22;18207;32.078;34.818;2023-07-28T09:57:13;36.00;40.80
23618;DHT22;18207;32.078;34.818;2023-07-28T09:59:48;36.00;40.90
23618;DHT22;18207;32.078;34.818;2023-07-28T10:02:24;36.00;40.90
23618;DHT22;18207;32.078;34.818;2023-07-28T10:04:55;36.00;40.90
23618;DHT22;18207;32.078;34.818;2023-07-28T10:07:27;36.00;40.90
23618;DHT22;18207;32.078;34.818;2023-07-28T10:09:58;36.00;40.80
23618;DHT22;18207;32.078;34.818;2023-07-28T10:12:28;36.00;40.80
23618;DHT22;18207;32.078;34.818;2023-07-28T10:15:04;36.00;40.70
23618;DHT22;18207;32.078;34.818;2023-07-28T10:17:36;36.00;40.60
23618;DHT22;18207;32.078;34.818;2023-07-28T10:20:27;36.10;40.60
23618;DHT22;18207;32.078;34.818;2023-07-28T10:23:06;36.00;40.30
23618;DHT22;18207;32.078;34.818;2023-07-28T10:25:41;36.00;40.30
23618;DHT22;18207;32.078;34.818;2023-07-28T10:28:28;36.00;40.30
23618;DHT22;18207;32.078;34.818;2023-07-28T10:31:01;36.00;39.60
23618;DHT22;18207;32.078;34.818;2023-07-28T10:33:36;36.00;39.80
23618;DHT22;18207;32.078;34.818;2023-07-28T10:36:14;36.00;39.70
23618;DHT22;18207;32.078;34.818;2023-07-28T10:38:45;36.10;39.80
23618;DHT22;18207;32.078;34.818;2023-07-28T10:41:16;36.00;39.80
23618;DHT22;18207;32.078;34.818;2023-07-28T10:43:47;36.10;39.80
23618;DHT22;18207;32.078;34.818;2023-07-28T10:46:20;36.10;39.90
23618;DHT22;18207;32.078;34.818;2023-07-28T10:48:54;36.10;39.80
23618;DHT22;18207;32.078;34.818;2023-07-28T10:51:27;36.10;39.80
23618;DHT22;18207;32.078;34.818;2023-07-28T10:54:01;36.10;39.60
23618;DHT22;18207;32.078;34.818;2023-07-28T10:56:31;36.10;39.60
23618;DHT22;18207;32.078;34.818;2023-07-28T10:59:04;36.10;39.70
23618;DHT22;18207;32.078;34.818;2023-07-28T11:01:35;36.10;39.40
23618;DHT22;18207;32.078;34.818;2023-07-28T11:04:10;36.10;39.30
23618;DHT22;18207;32.078;34.818;2023-07-28T11:06:43;36.10;39.30
23618;DHT22;18207;32.078;34.818;2023-07-28T11:09:18;36.10;39.30
23618;DHT22;18207;32.078;34.818;2023-07-28T11:11:50;36.10;39.20
23618;DHT22;18207;32.078;34.818;2023-07-28T11:14:21;36.10;39.20
23618;DHT22;18207;32.078;34.818;2023-07-28T11:16:53;36.10;39.00
23618;DHT22;18207;32.078;34.818;2023-07-28T11:19:26;36.20;39.30
23618;DHT22;18207;32.078;34.818;2023-07-28T11:21:56;36.20;39.30
23618;DHT22;18207;32.078;34.818;2023-07-28T11:24:27;36.30;39.30
23618;DHT22;18207;32.078;34.818;2023-07-28T11:26:58;36.20;39.30
23618;DHT22;18207;32.078;34.818;2023-07-28T11:29:30;36.20;39.40
23618;DHT22;18207;32.078;34.818;2023-07-28T11:32:01;36.20;39.30
23618;DHT22;18207;32.078;34.818;2023-07-28T11:34:36;36.30;39.30
23618;DHT22;18207;32.078;34.818;2023-07-28T11:37:09;36.30;39.10
23618;DHT22;18207;32.078;34.818;2023-07-28T11:39:41;36.30;39.10
23618;DHT22;18207;32.078;34.818;2023-07-28T11:42:11;36.30;39.10
23618;DHT22;18207;32.078;34.818;2023-07-28T11:44:43;36.30;39.10
23618;DHT22;18207;32.078;34.818;2023-07-28T11:47:17;36.40;39.10
23618;DHT22;18207;32.078;34.818;2023-07-28T11:49:50;36.40;39.00
23618;DHT22;18207;32.078;34.818;2023-07-28T11:52:21;36.40;39.00
23618;DHT22;18207;32.078;34.818;2023-07-28T11:54:52;36.40;38.90
23618;DHT22;18207;32.078;34.818;2023-07-28T11:57:22;36.40;38.90
23618;DHT22;18207;32.078;34.818;2023-07-28T11:59:55;36.40;39.00
23618;DHT22;18207;32.078;34.818;2023-07-28T12:02:26;36.40;39.00
23618;DHT22;18207;32.078;34.818;2023-07-28T12:04:59;36.30;39.00
23618;DHT22;18207;32.078;34.818;2023-07-28T12:07:34;36.30;39.20
23618;DHT22;18207;32.078;34.818;2023-07-28T12:10:06;36.40;39.10
23618;DHT22;18207;32.078;34.818;2023-07-28T12:12:45;36.30;38.90
23618;DHT22;18207;32.078;34.818;2023-07-28T12:15:21;36.30;38.90
23618;DHT22;18207;32.078;34.818;2023-07-28T12:18:11;36.30;39.00
23618;DHT22;18207;32.078;34.818;2023-07-28T12:20:49;36.30;39.00
23618;DHT22;18207;32.078;34.818;2023-07-28T12:23:21;36.30;39.10
23618;DHT22;18207;32.078;34.818;2023-07-28T12:25:55;36.30;39.20
23618;DHT22;18207;32.078;34.818;2023-07-28T12:28:26;36.30;39.10
23618;DHT22;18207;32.078;34.818;2023-07-28T12:30:57;36.20;39.10
23618;DHT22;18207;32.078;34.818;2023-07-28T12:33:29;36.30;39.10
23618;DHT22;18207;32.078;34.818;2023-07-28T12:36:04;36.20;38.90
23618;DHT22;18207;32.078;34.818;2023-07-28T12:38:38;36.20;38.90
23618;DHT22;18207;32.078;34.818;2023-07-28T12:41:10;36.20;38.90
23618;DHT22;18207;32.078;34.818;2023-07-28T12:43:48;36.20;38.90
23618;DHT22;18207;32.078;34.818;2023-07-28T12:46:22;36.20;38.90
23618;DHT22;18207;32.078;34.818;2023-07-28T12:48:52;36.20;39.00
23618;DHT22;18207;32.078;34.818;2023-07-28T12:51:28;36.10;39.10
23618;DHT22;18207;32.078;34.818;2023-07-28T12:53:59;36.10;38.80
23618;DHT22;18207;32.078;34.818;2023-07-28T12:56:30;36.10;38.80
23618;DHT22;18207;32.078;34.818;2023-07-28T12:59:05;36.10;38.60
23618;DHT22;18207;32.078;34.818;2023-07-28T13:01:39;36.10;38.80
23618;DHT22;18207;32.078;34.818;2023-07-28T13:04:09;36.10;39.00
23618;DHT22;18207;32.078;34.818;2023-07-28T13:06:42;36.00;39.70
23618;DHT22;18207;32.078;34.818;2023-07-28T13:09:14;36.10;39.20
23618;DHT22;18207;32.078;34.818;2023-07-28T13:11:48;36.00;39.10
23618;DHT22;18207;32.078;34.818;2023-07-28T13:14:21;36.00;39.20
23618;DHT22;18207;32.078;34.818;2023-07-28T13:16:52;36.00;39.20
23618;DHT22;18207;32.078;34.818;2023-07-28T13:19:22;36.00;39.10
23618;DHT22;18207;32.078;34.818;2023-07-28T13:21:55;36.00;39.10
23618;DHT22;18207;32.078;34.818;2023-07-28T13:24:25;35.90;39.10
23618;DHT22;18207;32.078;34.818;2023-07-28T13:26:56;35.90;39.00
23618;DHT22;18207;32.078;34.818;2023-07-28T13:29:27;35.90;39.10
23618;DHT22;18207;32.078;34.818;2023-07-28T13:31:58;35.90;39.00
23618;DHT22;18207;32.078;34.818;2023-07-28T13:34:29;35.90;39.60
23618;DHT22;18207;32.078;34.818;2023-07-28T13:37:02;35.80;38.90
23618;DHT22;18207;32.078;34.818;2023-07-28T13:39:33;35.80;39.00
23618;DHT22;18207;32.078;34.818;2023-07-28T13:42:04;35.80;38.90
23618;DHT22;18207;32.078;34.818;2023-07-28T13:44:36;35.80;38.70
23618;DHT22;18207;32.078;34.818;2023-07-28T13:47:23;35.80;38.70
23618;DHT22;18207;32.078;34.818;2023-07-28T13:49:54;35.80;38.70
23618;DHT22;18207;32.078;34.818;2023-07-28T13:52:26;35.70;38.70
23618;DHT22;18207;32.078;34.818;2023-07-28T13:54:57;35.70;38.60
23618;DHT22;18207;32.078;34.818;2023-07-28T13:57:31;35.70;38.60
23618;DHT22;18207;32.078;34.818;2023-07-28T14:00:03;35.70;38.90
23618;DHT22;18207;32.078;34.818;2023-07-28T14:02:37;35.60;38.90
23618;DHT22;18207;32.078;34.818;2023-07-28T14:05:08;35.60;39.10
23618;DHT22;18207;32.078;34.818;2023-07-28T14:07:40;35.60;39.10
23618;DHT22;18207;32.078;34.818;2023-07-28T14:10:11;35.60;39.30
23618;DHT22;18207;32.078;34.818;2023-07-28T14:12:42;35.60;39.40
23618;DHT22;18207;32.078;34.818;2023-07-28T14:15:12;35.60;39.20
23618;DHT22;18207;32.078;34.818;2023-07-28T14:17:43;35.50;39.10
23618;DHT22;18207;32.078;34.818;2023-07-28T14:20:13;35.60;39.20
23618;DHT22;18207;32.078;34.818;2023-07-28T14:22:45;35.50;39.40
23618;DHT22;18207;32.078;34.818;2023-07-28T14:25:16;35.50;39.50
23618;DHT22;18207;32.078;34.818;2023-07-28T14:27:46;35.40;39.40
23618;DHT22;18207;32.078;34.818;2023-07-28T14:30:17;35.50;39.40
23618;DHT22;18207;32.078;34.818;2023-07-28T14:32:47;35.40;39.40
23618;DHT22;18207;32.078;34.818;2023-07-28T14:35:17;35.40;39.60
23618;DHT22;18207;32.078;34.818;2023-07-28T14:37:49;35.40;39.50
23618;DHT22;18207;32.078;34.818;2023-07-28T14:40:20;35.40;39.50
23618;DHT22;18207;32.078;34.818;2023-07-28T14:42:50;35.40;39.70
23618;DHT22;18207;32.078;34.818;2023-07-28T14:45:21;35.30;39.50
23618;DHT22;18207;32.078;34.818;2023-07-28T14:47:52;35.30;39.50
23618;DHT22;18207;32.078;34.818;2023-07-28T14:50:23;35.30;39.60
23618;DHT22;18207;32.078;34.818;2023-07-28T14:52:58;35.30;39.60
23618;DHT22;18207;32.078;34.818;2023-07-28T14:55:29;35.20;39.30
23618;DHT22;18207;32.078;34.818;2023-07-28T14:57:59;35.20;39.20
23618;DHT22;18207;32.078;34.818;2023-07-28T15:00:30;35.20;39.20
23618;DHT22;18207;32.078;34.818;2023-07-28T15:03:02;35.20;39.30
23618;DHT22;18207;32.078;34.818;2023-07-28T15:05:32;35.20;39.10
23618;DHT22;18207;32.078;34.818;2023-07-28T15:08:05;35.10;39.10
23618;DHT22;18207;32.078;34.818;2023-07-28T15:10:35;35.10;38.90
23618;DHT22;18207;32.078;34.818;2023-07-28T15:13:06;35.10;39.00
23618;DHT22;18207;32.078;34.818;2023-07-28T15:15:37;35.10;39.00
23618;DHT22;18207;32.078;34.818;2023-07-28T15:18:08;35.00;39.00
23618;DHT22;18207;32.078;34.818;2023-07-28T15:20:40;35.00;39.20
23618;DHT22;18207;32.078;34.818;2023-07-28T15:23:12;35.00;39.20
23618;DHT22;18207;32.078;34.818;2023-07-28T15:25:43;35.00;39.20
23618;DHT22;18207;32.078;34.818;2023-07-28T15:28:15;35.00;39.20
23618;DHT22;18207;32.078;34.818;2023-07-28T15:30:45;34.90;39.10
23618;DHT22;18207;32.078;34.818;2023-07-28T15:33:17;34.90;39.10
23618;DHT22;18207;32.078;34.818;2023-07-28T15:35:47;34.90;39.20
23618;DHT22;18207;32.078;34.818;2023-07-28T15:38:20;34.90;39.30
23618;DHT22;18207;32.078;34.818;2023-07-28T15:40:51;34.90;39.10
23618;DHT22;18207;32.078;34.818;2023-07-28T15:43:25;34.90;39.20